Weather at F6 Ranch Airport

Public forecast

Using degrees Fahrenheit for public forecast. Weather courtesy of forecast.io.

Closest aviation weather report (METAR) to F6 Ranch Airport

Closest report is Kimble County Airport, 16.7 nm (30.9 km) E. Retrieved 2022/06/24 20:51 UTC (1 hour ago):

KJCT 242051Z AUTO 18013G19KT 10SM CLR 38/09 A2990 RMK AO2 SLP080 T03830094 56024

Closest aviation forecast (TAF) to F6 Ranch Airport

Closest forecast is Kimble County Airport, 16.7 nm (30.9 km) E. Retrieved 2022/06/24 18:45 UTC (3 hours ago):

TAF KJCT 241742Z 2418/2518 17012G20KT P6SM FEW080 FM250000 14006KT P6SM SKC FM251500 19006KT P6SM SKC